sensor_id;sensor_type;location;lat;lon;timestamp;P1;durP1;ratioP1;P2;durP2;ratioP2
78781;SDS011;68126;55.748;48.742;2023-03-08T00:00:52;3.80;;;1.82;;
78781;SDS011;68126;55.748;48.742;2023-03-08T00:06:18;2.70;;;1.62;;
78781;SDS011;68126;55.748;48.742;2023-03-08T00:11:43;2.33;;;1.47;;
78781;SDS011;68126;55.748;48.742;2023-03-08T00:17:08;3.00;;;2.35;;
78781;SDS011;68126;55.748;48.742;2023-03-08T00:22:54;4.03;;;1.92;;
78781;SDS011;68126;55.748;48.742;2023-03-08T00:28:19;2.85;;;1.95;;
78781;SDS011;68126;55.748;48.742;2023-03-08T00:33:44;1.60;;;1.30;;
78781;SDS011;68126;55.748;48.742;2023-03-08T00:39:10;2.15;;;2.05;;
78781;SDS011;68126;55.748;48.742;2023-03-08T00:44:37;1.77;;;1.55;;
78781;SDS011;68126;55.748;48.742;2023-03-08T00:50:02;1.80;;;1.55;;
78781;SDS011;68126;55.748;48.742;2023-03-08T00:55:28;2.20;;;2.05;;
78781;SDS011;68126;55.748;48.742;2023-03-08T01:00:53;1.52;;;1.42;;
78781;SDS011;68126;55.748;48.742;2023-03-08T01:06:18;2.77;;;2.58;;
78781;SDS011;68126;55.748;48.742;2023-03-08T01:11:43;2.72;;;1.62;;
78781;SDS011;68126;55.748;48.742;2023-03-08T01:17:09;3.12;;;2.25;;
78781;SDS011;68126;55.748;48.742;2023-03-08T01:22:34;1.55;;;1.45;;
78781;SDS011;68126;55.748;48.742;2023-03-08T01:28:00;2.75;;;2.25;;
78781;SDS011;68126;55.748;48.742;2023-03-08T01:33:25;2.02;;;1.47;;
78781;SDS011;68126;55.748;48.742;2023-03-08T01:38:49;3.37;;;1.98;;
78781;SDS011;68126;55.748;48.742;2023-03-08T01:44:15;2.55;;;1.50;;
78781;SDS011;68126;55.748;48.742;2023-03-08T01:49:40;2.42;;;1.85;;
78781;SDS011;68126;55.748;48.742;2023-03-08T01:55:05;2.35;;;2.10;;
78781;SDS011;68126;55.748;48.742;2023-03-08T02:00:30;2.00;;;1.87;;
78781;SDS011;68126;55.748;48.742;2023-03-08T02:05:55;2.10;;;1.40;;
78781;SDS011;68126;55.748;48.742;2023-03-08T02:11:20;2.22;;;2.02;;
78781;SDS011;68126;55.748;48.742;2023-03-08T02:16:46;1.55;;;1.45;;
78781;SDS011;68126;55.748;48.742;2023-03-08T02:22:12;2.25;;;2.05;;
78781;SDS011;68126;55.748;48.742;2023-03-08T02:27:37;2.45;;;1.92;;
78781;SDS011;68126;55.748;48.742;2023-03-08T02:33:02;2.90;;;1.98;;
78781;SDS011;68126;55.748;48.742;2023-03-08T02:38:27;3.45;;;1.95;;
78781;SDS011;68126;55.748;48.742;2023-03-08T02:43:51;2.45;;;2.12;;
78781;SDS011;68126;55.748;48.742;2023-03-08T02:49:16;1.35;;;1.02;;
78781;SDS011;68126;55.748;48.742;2023-03-08T02:54:41;2.15;;;1.72;;
78781;SDS011;68126;55.748;48.742;2023-03-08T03:00:06;2.62;;;2.35;;
78781;SDS011;68126;55.748;48.742;2023-03-08T03:05:31;3.20;;;2.10;;
78781;SDS011;68126;55.748;48.742;2023-03-08T03:10:55;1.70;;;1.60;;
78781;SDS011;68126;55.748;48.742;2023-03-08T03:16:20;2.52;;;2.12;;
78781;SDS011;68126;55.748;48.742;2023-03-08T03:21:45;3.50;;;3.20;;
78781;SDS011;68126;55.748;48.742;2023-03-08T03:27:09;3.05;;;2.77;;
78781;SDS011;68126;55.748;48.742;2023-03-08T03:32:34;3.17;;;2.83;;
78781;SDS011;68126;55.748;48.742;2023-03-08T03:37:59;2.87;;;2.65;;
78781;SDS011;68126;55.748;48.742;2023-03-08T03:43:23;2.42;;;1.57;;
78781;SDS011;68126;55.748;48.742;2023-03-08T03:48:48;3.77;;;3.35;;
78781;SDS011;68126;55.748;48.742;2023-03-08T03:54:13;3.92;;;1.87;;
78781;SDS011;68126;55.748;48.742;2023-03-08T03:59:37;5.75;;;3.17;;
78781;SDS011;68126;55.748;48.742;2023-03-08T04:05:02;2.60;;;2.40;;
78781;SDS011;68126;55.748;48.742;2023-03-08T04:10:27;2.25;;;2.02;;
78781;SDS011;68126;55.748;48.742;2023-03-08T04:21:15;3.22;;;1.70;;
78781;SDS011;68126;55.748;48.742;2023-03-08T04:26:40;2.95;;;2.75;;
78781;SDS011;68126;55.748;48.742;2023-03-08T04:32:04;3.45;;;3.15;;
78781;SDS011;68126;55.748;48.742;2023-03-08T04:37:29;1.95;;;1.82;;
78781;SDS011;68126;55.748;48.742;2023-03-08T04:42:54;2.08;;;1.52;;
78781;SDS011;68126;55.748;48.742;2023-03-08T04:48:19;1.40;;;1.27;;
78781;SDS011;68126;55.748;48.742;2023-03-08T04:53:44;1.72;;;1.60;;
78781;SDS011;68126;55.748;48.742;2023-03-08T04:59:08;2.30;;;1.98;;
78781;SDS011;68126;55.748;48.742;2023-03-08T05:04:33;2.02;;;1.72;;
78781;SDS011;68126;55.748;48.742;2023-03-08T05:09:58;3.05;;;2.58;;
78781;SDS011;68126;55.748;48.742;2023-03-08T05:15:23;2.00;;;1.75;;
78781;SDS011;68126;55.748;48.742;2023-03-08T05:26:32;2.65;;;2.10;;
78781;SDS011;68126;55.748;48.742;2023-03-08T05:31:57;3.77;;;2.35;;
78781;SDS011;68126;55.748;48.742;2023-03-08T05:37:23;4.87;;;3.55;;
78781;SDS011;68126;55.748;48.742;2023-03-08T05:48:14;5.70;;;3.27;;
78781;SDS011;68126;55.748;48.742;2023-03-08T05:53:38;7.28;;;3.60;;
78781;SDS011;68126;55.748;48.742;2023-03-08T05:59:04;6.92;;;4.00;;
78781;SDS011;68126;55.748;48.742;2023-03-08T06:04:50;3.85;;;2.35;;
78781;SDS011;68126;55.748;48.742;2023-03-08T06:10:16;5.28;;;3.20;;
78781;SDS011;68126;55.748;48.742;2023-03-08T06:15:40;7.85;;;4.08;;
78781;SDS011;68126;55.748;48.742;2023-03-08T06:21:06;6.87;;;5.22;;
78781;SDS011;68126;55.748;48.742;2023-03-08T06:26:33;8.40;;;5.00;;
78781;SDS011;68126;55.748;48.742;2023-03-08T06:31:57;7.53;;;4.58;;
78781;SDS011;68126;55.748;48.742;2023-03-08T06:43:08;5.05;;;3.95;;
78781;SDS011;68126;55.748;48.742;2023-03-08T06:54:04;6.22;;;3.85;;
78781;SDS011;68126;55.748;48.742;2023-03-08T06:59:49;6.03;;;4.28;;
78781;SDS011;68126;55.748;48.742;2023-03-08T07:11:04;9.68;;;4.72;;
78781;SDS011;68126;55.748;48.742;2023-03-08T07:16:31;8.13;;;3.92;;
78781;SDS011;68126;55.748;48.742;2023-03-08T07:22:31;7.28;;;4.50;;
78781;SDS011;68126;55.748;48.742;2023-03-08T07:27:30;8.65;;;5.22;;
78781;SDS011;68126;55.748;48.742;2023-03-08T07:32:54;6.95;;;4.90;;
78781;SDS011;68126;55.748;48.742;2023-03-08T07:43:47;11.08;;;6.12;;
78781;SDS011;68126;55.748;48.742;2023-03-08T07:49:12;6.47;;;4.17;;
78781;SDS011;68126;55.748;48.742;2023-03-08T07:54:37;7.45;;;4.30;;
78781;SDS011;68126;55.748;48.742;2023-03-08T08:00:02;5.10;;;4.25;;
78781;SDS011;68126;55.748;48.742;2023-03-08T08:05:46;6.92;;;6.00;;
78781;SDS011;68126;55.748;48.742;2023-03-08T08:11:46;5.83;;;3.72;;
78781;SDS011;68126;55.748;48.742;2023-03-08T08:16:37;5.62;;;3.25;;
78781;SDS011;68126;55.748;48.742;2023-03-08T08:22:04;6.67;;;4.70;;
78781;SDS011;68126;55.748;48.742;2023-03-08T08:33:15;3.95;;;3.30;;
78781;SDS011;68126;55.748;48.742;2023-03-08T08:38:42;9.55;;;4.78;;
78781;SDS011;68126;55.748;48.742;2023-03-08T08:44:08;5.45;;;3.77;;
78781;SDS011;68126;55.748;48.742;2023-03-08T08:49:33;6.40;;;4.30;;
78781;SDS011;68126;55.748;48.742;2023-03-08T08:54:59;9.13;;;5.17;;
78781;SDS011;68126;55.748;48.742;2023-03-08T09:00:23;7.35;;;5.25;;
78781;SDS011;68126;55.748;48.742;2023-03-08T09:05:48;6.83;;;4.30;;
78781;SDS011;68126;55.748;48.742;2023-03-08T09:16:41;8.68;;;5.08;;
78781;SDS011;68126;55.748;48.742;2023-03-08T09:22:05;10.48;;;5.67;;
78781;SDS011;68126;55.748;48.742;2023-03-08T09:27:32;6.05;;;4.22;;
78781;SDS011;68126;55.748;48.742;2023-03-08T09:38:27;6.35;;;4.70;;
78781;SDS011;68126;55.748;48.742;2023-03-08T09:49:53;7.47;;;4.15;;
78781;SDS011;68126;55.748;48.742;2023-03-08T10:00:51;5.30;;;3.75;;
78781;SDS011;68126;55.748;48.742;2023-03-08T10:23:23;3.52;;;3.22;;
78781;SDS011;68126;55.748;48.742;2023-03-08T10:28:53;3.60;;;2.98;;
78781;SDS011;68126;55.748;48.742;2023-03-08T10:34:19;6.85;;;5.53;;
78781;SDS011;68126;55.748;48.742;2023-03-08T10:39:49;3.35;;;2.83;;
78781;SDS011;68126;55.748;48.742;2023-03-08T10:45:21;5.37;;;4.87;;
78781;SDS011;68126;55.748;48.742;2023-03-08T10:50:56;4.45;;;2.87;;
78781;SDS011;68126;55.748;48.742;2023-03-08T11:07:49;7.60;;;5.58;;
78781;SDS011;68126;55.748;48.742;2023-03-08T11:19:01;7.03;;;5.33;;
78781;SDS011;68126;55.748;48.742;2023-03-08T11:24:29;4.60;;;3.20;;
78781;SDS011;68126;55.748;48.742;2023-03-08T11:41:31;5.08;;;3.80;;
78781;SDS011;68126;55.748;48.742;2023-03-08T12:03:58;4.53;;;3.52;;
78781;SDS011;68126;55.748;48.742;2023-03-08T12:32:07;6.35;;;4.47;;
78781;SDS011;68126;55.748;48.742;2023-03-08T12:37:33;6.87;;;4.53;;
78781;SDS011;68126;55.748;48.742;2023-03-08T12:43:33;6.67;;;4.20;;
78781;SDS011;68126;55.748;48.742;2023-03-08T12:53:55;5.83;;;4.12;;
78781;SDS011;68126;55.748;48.742;2023-03-08T13:04:47;6.00;;;5.08;;
78781;SDS011;68126;55.748;48.742;2023-03-08T13:40:03;12.95;;;8.55;;
78781;SDS011;68126;55.748;48.742;2023-03-08T13:46:12;9.80;;;5.65;;
78781;SDS011;68126;55.748;48.742;2023-03-08T13:51:02;7.85;;;5.03;;
78781;SDS011;68126;55.748;48.742;2023-03-08T13:57:00;11.05;;;6.08;;
78781;SDS011;68126;55.748;48.742;2023-03-08T14:02:30;8.60;;;5.37;;
78781;SDS011;68126;55.748;48.742;2023-03-08T14:07:29;8.93;;;6.58;;
78781;SDS011;68126;55.748;48.742;2023-03-08T14:47:22;7.58;;;4.78;;
78781;SDS011;68126;55.748;48.742;2023-03-08T14:52:57;10.98;;;7.53;;
78781;SDS011;68126;55.748;48.742;2023-03-08T15:10:00;8.18;;;6.53;;
78781;SDS011;68126;55.748;48.742;2023-03-08T15:15:27;16.97;;;7.12;;
78781;SDS011;68126;55.748;48.742;2023-03-08T15:21:24;11.90;;;5.97;;
78781;SDS011;68126;55.748;48.742;2023-03-08T15:37:21;5.42;;;3.98;;
78781;SDS011;68126;55.748;48.742;2023-03-08T15:42:51;7.00;;;3.98;;
78781;SDS011;68126;55.748;48.742;2023-03-08T15:48:21;7.40;;;4.53;;
78781;SDS011;68126;55.748;48.742;2023-03-08T15:59:34;9.68;;;5.37;;
78781;SDS011;68126;55.748;48.742;2023-03-08T16:05:21;7.83;;;4.78;;
78781;SDS011;68126;55.748;48.742;2023-03-08T16:11:09;8.18;;;4.70;;
78781;SDS011;68126;55.748;48.742;2023-03-08T16:16:54;9.78;;;4.58;;
78781;SDS011;68126;55.748;48.742;2023-03-08T16:22:27;6.47;;;4.05;;
78781;SDS011;68126;55.748;48.742;2023-03-08T16:28:06;4.95;;;3.08;;
78781;SDS011;68126;55.748;48.742;2023-03-08T16:33:39;4.60;;;3.60;;
78781;SDS011;68126;55.748;48.742;2023-03-08T16:44:55;7.45;;;4.12;;
78781;SDS011;68126;55.748;48.742;2023-03-08T17:08:06;6.33;;;3.52;;
78781;SDS011;68126;55.748;48.742;2023-03-08T17:19:26;4.95;;;3.20;;
78781;SDS011;68126;55.748;48.742;2023-03-08T17:30:42;8.38;;;3.35;;
78781;SDS011;68126;55.748;48.742;2023-03-08T17:41:39;10.63;;;4.10;;
78781;SDS011;68126;55.748;48.742;2023-03-08T17:47:36;8.95;;;4.97;;
78781;SDS011;68126;55.748;48.742;2023-03-08T17:52:35;6.40;;;4.12;;
78781;SDS011;68126;55.748;48.742;2023-03-08T17:58:00;7.22;;;3.83;;
78781;SDS011;68126;55.748;48.742;2023-03-08T18:03:25;7.53;;;4.28;;
78781;SDS011;68126;55.748;48.742;2023-03-08T18:08:55;4.53;;;3.05;;
78781;SDS011;68126;55.748;48.742;2023-03-08T18:14:21;5.08;;;3.40;;
78781;SDS011;68126;55.748;48.742;2023-03-08T18:19:46;6.40;;;3.05;;
78781;SDS011;68126;55.748;48.742;2023-03-08T18:25:12;5.08;;;3.50;;
78781;SDS011;68126;55.748;48.742;2023-03-08T18:30:39;4.33;;;3.27;;
78781;SDS011;68126;55.748;48.742;2023-03-08T18:36:06;8.20;;;4.42;;
78781;SDS011;68126;55.748;48.742;2023-03-08T18:41:33;6.80;;;4.75;;
78781;SDS011;68126;55.748;48.742;2023-03-08T18:46:58;6.33;;;3.70;;
78781;SDS011;68126;55.748;48.742;2023-03-08T18:52:22;6.78;;;4.22;;
78781;SDS011;68126;55.748;48.742;2023-03-08T18:57:47;9.75;;;4.90;;
78781;SDS011;68126;55.748;48.742;2023-03-08T19:03:15;6.05;;;3.60;;
78781;SDS011;68126;55.748;48.742;2023-03-08T19:14:12;6.05;;;3.87;;
78781;SDS011;68126;55.748;48.742;2023-03-08T19:19:40;6.70;;;3.72;;
78781;SDS011;68126;55.748;48.742;2023-03-08T19:43:07;5.50;;;3.60;;
78781;SDS011;68126;55.748;48.742;2023-03-08T19:48:34;7.00;;;3.83;;
78781;SDS011;68126;55.748;48.742;2023-03-08T19:54:03;7.50;;;4.12;;
78781;SDS011;68126;55.748;48.742;2023-03-08T20:04:58;9.43;;;6.10;;
78781;SDS011;68126;55.748;48.742;2023-03-08T20:10:23;6.65;;;4.33;;
78781;SDS011;68126;55.748;48.742;2023-03-08T20:15:49;6.90;;;4.75;;
78781;SDS011;68126;55.748;48.742;2023-03-08T20:21:18;7.87;;;5.10;;
78781;SDS011;68126;55.748;48.742;2023-03-08T20:32:11;10.53;;;6.03;;
78781;SDS011;68126;55.748;48.742;2023-03-08T20:37:37;6.60;;;4.03;;
78781;SDS011;68126;55.748;48.742;2023-03-08T21:00:13;10.93;;;5.22;;
78781;SDS011;68126;55.748;48.742;2023-03-08T21:16:52;12.75;;;6.95;;
78781;SDS011;68126;55.748;48.742;2023-03-08T21:22:17;14.15;;;6.50;;
78781;SDS011;68126;55.748;48.742;2023-03-08T21:27:41;14.53;;;6.92;;
78781;SDS011;68126;55.748;48.742;2023-03-08T21:33:06;13.60;;;6.95;;
78781;SDS011;68126;55.748;48.742;2023-03-08T21:38:51;20.27;;;9.45;;
78781;SDS011;68126;55.748;48.742;2023-03-08T21:44:18;11.48;;;5.35;;
78781;SDS011;68126;55.748;48.742;2023-03-08T21:49:43;19.00;;;8.15;;
78781;SDS011;68126;55.748;48.742;2023-03-08T21:55:08;18.42;;;8.68;;
78781;SDS011;68126;55.748;48.742;2023-03-08T22:00:34;13.08;;;7.30;;
78781;SDS011;68126;55.748;48.742;2023-03-08T22:06:22;17.35;;;7.85;;
78781;SDS011;68126;55.748;48.742;2023-03-08T22:11:47;18.75;;;8.58;;
78781;SDS011;68126;55.748;48.742;2023-03-08T22:17:15;18.90;;;7.28;;
78781;SDS011;68126;55.748;48.742;2023-03-08T22:22:39;9.45;;;4.60;;
78781;SDS011;68126;55.748;48.742;2023-03-08T22:28:05;17.05;;;7.62;;
78781;SDS011;68126;55.748;48.742;2023-03-08T22:33:29;12.15;;;6.30;;
78781;SDS011;68126;55.748;48.742;2023-03-08T22:38:54;13.43;;;7.83;;
78781;SDS011;68126;55.748;48.742;2023-03-08T22:44:19;12.98;;;6.95;;
78781;SDS011;68126;55.748;48.742;2023-03-08T22:49:44;13.48;;;7.15;;
78781;SDS011;68126;55.748;48.742;2023-03-08T22:55:09;15.60;;;7.70;;
78781;SDS011;68126;55.748;48.742;2023-03-08T23:06:01;12.40;;;6.03;;
78781;SDS011;68126;55.748;48.742;2023-03-08T23:12:01;10.60;;;6.20;;
78781;SDS011;68126;55.748;48.742;2023-03-08T23:16:54;8.55;;;5.15;;
78781;SDS011;68126;55.748;48.742;2023-03-08T23:22:18;11.43;;;6.65;;
78781;SDS011;68126;55.748;48.742;2023-03-08T23:27:43;6.50;;;3.87;;
78781;SDS011;68126;55.748;48.742;2023-03-08T23:49:48;7.60;;;4.87;;
78781;SDS011;68126;55.748;48.742;2023-03-08T23:55:14;9.68;;;5.22;;
